In Rescue
 
Open Full Screen Window  High Contrast Mode
Wind Gusting 00 knots
05
January 22, 2020 7:19 PM EST
Weather Information
Wind Direction
  200 °
Wind Speed
  05 kt (6 mph)
Wind Gust
  00 kt (0 mph)
Altimeter
30.15 in
Visibility
10 SM
Temperature
-01° C
30° F
Dewpoint
-08° C
18° F
Humidity
59%
1hr Rain Fall
00.00 in.
24hr Rain Fall
00.00 in.
Sky Condition
Clear
VFR

METAR KY31 230019Z AUTO 20005KT 10SM CLR M01/M08 A3015 RMK AO2 T10151077

FAA Disclaimer: The data displayed is for advisory purposes only and is not to be used for flight planning or operations.